Time;durP1;ratioP1;P1;durP2;ratioP2;P2;SDS_P1;SDS_P2;PMS_P1;PMS_P2;Temp;Humidity;BMP_temperature;BMP_pressure;BME280_temperature;BME280_humidity;BME280_pressure;Samples;Min_cycle;Max_cycle;Signal;HPM_P1;HPM_P2
2023/07/12 00:01:21;;;;;;;3.10;1.70;;;;;;;13.74;100.00;99994.11;104989;1257;72349;-66
2023/07/12 00:03:49;;;;;;;3.60;1.60;;;;;;;13.68;100.00;99998.33;104908;1257;65832;-65
2023/07/12 00:06:19;;;;;;;3.40;1.90;;;;;;;13.62;100.00;100004.48;105509;1253;71735;-66
2023/07/12 00:08:47;;;;;;;4.20;2.00;;;;;;;13.57;100.00;100003.77;105260;1257;60162;-65
2023/07/12 00:11:17;;;;;;;3.70;1.70;;;;;;;13.50;100.00;100006.66;105237;1257;59906;-65
2023/07/12 00:13:45;;;;;;;4.50;2.00;;;;;;;13.39;100.00;100004.86;105365;1254;73291;-65
2023/07/12 00:16:24;;;;;;;4.60;1.70;;;;;;;13.28;100.00;100006.83;109282;1252;66911;-66
2023/07/12 00:18:53;;;;;;;5.40;1.50;;;;;;;13.18;100.00;100011.81;109199;1253;72682;-66
2023/07/12 00:21:22;;;;;;;6.20;1.80;;;;;;;13.09;100.00;100014.30;109295;1252;60861;-66
2023/07/12 00:23:55;;;;;;;2.70;1.50;;;;;;;13.01;100.00;100022.17;109220;1252;58900;-66
2023/07/12 00:26:34;;;;;;;3.10;1.80;;;;;;;12.92;100.00;100029.06;109205;1252;73103;-66
2023/07/12 00:29:03;;;;;;;3.40;1.80;;;;;;;12.84;100.00;100036.61;109174;1253;67833;-66
2023/07/12 00:31:32;;;;;;;4.80;1.80;;;;;;;12.79;100.00;100043.25;109155;1252;72711;-66
2023/07/12 00:34:03;;;;;;;2.50;1.50;;;;;;;12.74;100.00;100043.29;109275;1252;62407;-67
2023/07/12 00:36:31;;;;;;;5.40;1.80;;;;;;;12.72;100.00;100042.52;109212;1252;58166;-66
2023/07/12 00:38:59;;;;;;;3.60;1.90;;;;;;;12.69;100.00;100042.38;109141;1254;73480;-66
2023/07/12 00:41:53;;;;;;;4.20;2.10;;;;;;;12.69;100.00;100047.80;109376;1252;67182;-66
2023/07/12 00:44:26;;;;;;;3.50;1.80;;;;;;;12.71;100.00;100050.26;109130;1252;72768;-67
2023/07/12 00:46:54;;;;;;;3.40;1.50;;;;;;;12.75;100.00;100054.60;109175;1252;60478;-66
2023/07/12 00:49:27;;;;;;;3.10;1.80;;;;;;;12.82;100.00;100056.52;108958;1252;59661;-67
2023/07/12 00:52:03;;;;;;;3.10;1.50;;;;;;;12.91;100.00;100059.58;109158;1253;73136;-67
2023/07/12 00:54:49;;;;;;;2.80;1.60;;;;;;;13.03;100.00;100057.27;108982;1253;66898;-67
2023/07/12 00:57:17;;;;;;;4.20;1.50;;;;;;;13.18;100.00;100052.96;109052;1253;72931;-66
2023/07/12 00:59:45;;;;;;;4.30;1.90;;;;;;;13.31;100.00;100051.65;108951;1253;58891;-67
2023/07/12 01:02:12;;;;;;;3.70;1.40;;;;;;;13.44;100.00;100045.68;108969;1253;58872;-68
2023/07/12 01:04:45;;;;;;;3.30;1.90;;;;;;;13.56;100.00;100042.21;108941;1253;73544;-66
2023/07/12 01:07:14;;;;;;;4.30;1.50;;;;;;;13.63;100.00;100038.13;108939;1253;66949;-66
2023/07/12 01:09:42;;;;;;;3.20;1.80;;;;;;;13.67;100.00;100033.75;108954;1253;72765;-66
2023/07/12 01:12:11;;;;;;;4.40;2.20;;;;;;;13.69;100.00;100033.98;109088;1252;60137;-66
2023/07/12 01:14:40;;;;;;;3.10;1.80;;;;;;;13.70;100.00;100033.48;109192;1252;59148;-65
2023/07/12 01:17:07;;;;;;;3.20;2.10;;;;;;;13.73;100.00;100035.48;109053;1253;73267;-66
2023/07/12 01:19:37;;;;;;;3.50;1.90;;;;;;;13.77;100.00;100035.84;109083;1253;65679;-65
2023/07/12 01:22:05;;;;;;;3.60;1.70;;;;;;;13.82;100.00;100044.36;109138;1253;72781;-66
2023/07/12 01:24:34;;;;;;;5.60;2.20;;;;;;;13.84;100.00;100046.84;109197;1253;58793;-65
2023/07/12 01:27:14;;;;;;;3.60;1.90;;;;;;;13.79;100.00;100049.17;109182;1252;58895;-66
2023/07/12 01:29:42;;;;;;;5.20;1.60;;;;;;;13.70;100.00;100052.89;109154;1253;72148;-66
2023/07/12 01:32:10;;;;;;;4.50;1.80;;;;;;;13.59;100.00;100053.08;109132;1253;65668;-65
2023/07/12 01:34:38;;;;;;;7.50;2.10;;;;;;;13.49;100.00;100052.83;109132;1253;72743;-66
2023/07/12 01:37:05;;;;;;;2.90;1.80;;;;;;;13.40;100.00;100057.54;109185;1252;60301;-66
2023/07/12 01:39:33;;;;;;;3.90;1.70;;;;;;;13.34;100.00;100059.62;109152;1253;58965;-65
2023/07/12 01:42:01;;;;;;;3.80;2.40;;;;;;;13.30;100.00;100061.64;109200;1253;73126;-66
2023/07/12 01:44:29;;;;;;;6.80;1.70;;;;;;;13.27;100.00;100067.80;109235;1253;65393;-65
2023/07/12 01:46:56;;;;;;;4.00;1.80;;;;;;;13.24;100.00;100067.98;109165;1253;73144;-66
2023/07/12 01:49:26;;;;;;;3.70;1.70;;;;;;;13.21;100.00;100069.71;109244;1253;60423;-66
2023/07/12 01:51:53;;;;;;;3.60;1.90;;;;;;;13.19;100.00;100070.98;109212;1255;58812;-65
2023/07/12 01:54:21;;;;;;;3.10;2.00;;;;;;;13.17;100.00;100067.42;109177;1253;73884;-66
2023/07/12 01:56:48;;;;;;;4.20;1.70;;;;;;;13.15;100.00;100064.50;109102;1255;65653;-66
2023/07/12 01:59:16;;;;;;;3.60;1.80;;;;;;;13.16;100.00;100062.05;109133;1254;73247;-65
2023/07/12 02:01:44;;;;;;;4.90;1.60;;;;;;;13.20;100.00;100057.96;109136;1253;61766;-65
2023/07/12 02:04:11;;;;;;;3.70;1.60;;;;;;;13.39;100.00;100052.02;109135;1253;58916;-66
2023/07/12 02:06:39;;;;;;;3.70;1.60;;;;;;;13.73;100.00;100045.77;109186;1253;73034;-66
2023/07/12 02:09:06;;;;;;;6.00;1.90;;;;;;;14.12;100.00;100043.95;109183;1252;65652;-66
2023/07/12 02:11:34;;;;;;;4.00;1.80;;;;;;;14.51;100.00;100043.77;109202;1253;72708;-66
2023/07/12 02:14:02;;;;;;;3.40;1.70;;;;;;;15.02;100.00;100046.93;109171;1252;61734;-66
2023/07/12 02:16:29;;;;;;;2.80;1.60;;;;;;;15.58;100.00;100043.55;109188;1256;58767;-66
2023/07/12 02:18:57;;;;;;;3.40;1.60;;;;;;;16.15;100.00;100044.80;109369;1252;73592;-65
2023/07/12 02:21:25;;;;;;;3.70;1.90;;;;;;;16.65;100.00;100037.19;109246;1253;67144;-66
2023/07/12 02:23:53;;;;;;;3.60;1.80;;;;;;;17.12;100.00;100029.66;109214;1253;72730;-67
2023/07/12 02:26:20;;;;;;;3.00;1.40;;;;;;;17.57;100.00;100021.82;109098;1253;60673;-66
2023/07/12 02:28:48;;;;;;;2.70;1.40;;;;;;;18.10;100.00;100016.73;109153;1253;58856;-66
2023/07/12 02:31:20;;;;;;;8.90;3.90;;;;;;;18.72;100.00;100005.29;109187;1253;73124;-65
2023/07/12 02:33:49;;;;;;;34.60;16.50;;;;;;;19.45;100.00;99997.52;109133;1253;65154;-65
2023/07/12 02:36:16;;;;;;;106.20;67.90;;;;;;;20.22;100.00;99990.16;109163;1253;72773;-68
2023/07/12 02:38:46;;;;;;;331.70;226.80;;;;;;;20.99;100.00;99982.04;109188;1253;60823;-65
2023/07/12 02:41:18;;;;;;;393.90;336.50;;;;;;;21.76;100.00;99971.84;109224;1252;60085;-65
2023/07/12 02:43:46;;;;;;;334.30;272.20;;;;;;;22.41;100.00;99968.23;109232;1253;71534;-65
2023/07/12 02:46:13;;;;;;;439.70;362.30;;;;;;;23.03;100.00;99967.67;109191;1254;66793;-66
2023/07/12 02:48:41;;;;;;;384.30;342.50;;;;;;;23.49;100.00;99964.39;109159;1253;72742;-65
2023/07/12 02:51:09;;;;;;;306.40;275.00;;;;;;;23.71;100.00;99966.73;109231;1253;60135;-65
2023/07/12 02:53:37;;;;;;;139.70;126.00;;;;;;;23.73;100.00;99970.29;109256;1253;60109;-65
2023/07/12 02:56:08;;;;;;;183.70;167.30;;;;;;;23.69;100.00;99972.39;109204;1253;72037;-66
2023/07/12 02:58:36;;;;;;;132.10;120.80;;;;;;;23.87;100.00;99973.97;109165;1255;67494;-66
2023/07/12 03:01:03;;;;;;;74.60;68.40;;;;;;;24.29;100.00;99971.65;109320;1252;71411;-65
2023/07/12 03:03:31;;;;;;;63.20;58.50;;;;;;;24.80;100.00;99966.59;109202;1253;60144;-65
2023/07/12 03:06:07;;;;;;;31.30;29.00;;;;;;;25.35;100.00;99969.30;109266;1252;58775;-65
2023/07/12 03:08:34;;;;;;;14.80;13.90;;;;;;;25.85;100.00;99966.17;109160;1253;73204;-66
2023/07/12 03:11:03;;;;;;;5.00;3.60;;;;;;;26.16;100.00;99965.20;109262;1253;65835;-65
2023/07/12 03:13:31;;;;;;;5.30;2.90;;;;;;;26.25;100.00;99965.61;109180;1253;71621;-65
2023/07/12 03:15:59;;;;;;;4.60;2.50;;;;;;;26.14;100.00;99970.59;109339;1252;60069;-65
2023/07/12 03:18:27;;;;;;;3.90;2.30;;;;;;;25.74;100.00;99967.36;109117;1252;60020;-67
2023/07/12 03:21:01;;;;;;;3.70;2.30;;;;;;;25.38;100.00;99969.95;109223;1253;71881;-65
2023/07/12 03:23:29;;;;;;;3.20;2.10;;;;;;;25.37;100.00;99967.62;109133;1253;66841;-66
2023/07/12 03:25:56;;;;;;;13.20;2.70;;;;;;;25.49;100.00;99971.08;109213;1253;71079;-65
2023/07/12 03:28:24;;;;;;;3.60;2.30;;;;;;;25.54;100.00;99967.27;108999;1253;61015;-66
2023/07/12 03:31:03;;;;;;;4.60;2.70;;;;;;;25.78;100.00;99969.48;109128;1253;59192;-65
2023/07/12 03:33:30;;;;;;;3.20;2.30;;;;;;;26.27;100.00;99964.56;109167;1253;73165;-65
2023/07/12 03:35:59;;;;;;;3.30;2.00;;;;;;;26.62;99.90;99964.65;109189;1253;67094;-66
2023/07/12 03:38:28;;;;;;;4.60;2.50;;;;;;;26.52;98.91;99965.91;109095;1253;73288;-66
2023/07/12 03:41:01;;;;;;;6.40;2.20;;;;;;;26.15;99.90;99969.91;109099;1253;60127;-66
2023/07/12 03:43:29;;;;;;;3.90;2.10;;;;;;;25.72;100.00;99971.27;109128;1253;58924;-65
2023/07/12 03:45:57;;;;;;;6.00;2.90;;;;;;;25.44;100.00;99975.63;109147;1253;71791;-66
2023/07/12 03:48:25;;;;;;;4.10;2.60;;;;;;;25.28;100.00;99975.59;109094;1253;65677;-66
2023/07/12 03:50:55;;;;;;;4.50;2.60;;;;;;;25.02;100.00;99975.15;109242;1252;72393;-65
2023/07/12 03:53:26;;;;;;;3.10;2.30;;;;;;;24.86;100.00;99973.69;109215;1253;60177;-65
2023/07/12 03:55:58;;;;;;;2.90;2.20;;;;;;;24.95;100.00;99976.93;109172;1252;58914;-66
2023/07/12 03:58:27;;;;;;;3.00;2.10;;;;;;;25.52;100.00;99971.60;109181;1253;72732;-66
2023/07/12 04:00:55;;;;;;;4.80;2.40;;;;;;;26.24;100.00;99970.19;109247;1253;66389;-66
2023/07/12 04:03:22;;;;;;;3.00;2.50;;;;;;;27.23;100.00;99971.39;109188;1253;72889;-66
2023/07/12 04:05:51;;;;;;;4.10;2.30;;;;;;;28.18;95.39;99971.86;109217;1253;59381;-66
2023/07/12 04:08:19;;;;;;;5.30;2.50;;;;;;;28.88;80.48;99975.48;109183;1253;60641;-66
2023/07/12 04:10:53;;;;;;;5.30;2.20;;;;;;;29.48;72.51;99973.79;109207;1253;74336;-66
2023/07/12 04:13:22;;;;;;;4.40;2.10;;;;;;;30.04;61.30;99973.20;109260;1253;65796;-65
2023/07/12 04:15:54;;;;;;;3.90;2.10;;;;;;;30.38;55.49;99974.11;109201;1253;63861;-67
2023/07/12 04:18:23;;;;;;;4.10;2.10;;;;;;;30.51;54.79;99978.42;109205;1253;60737;-66
2023/07/12 04:20:52;;;;;;;3.60;2.70;;;;;;;30.37;55.15;99977.34;109246;1253;60573;-65
2023/07/12 04:23:19;;;;;;;4.20;2.60;;;;;;;30.34;57.33;99977.00;109234;1253;73951;-65
2023/07/12 04:25:47;;;;;;;4.00;2.20;;;;;;;30.43;55.06;99980.29;109251;1253;66342;-65
2023/07/12 04:28:14;;;;;;;2.90;2.40;;;;;;;30.23;52.68;99986.86;109249;1253;72561;-65
2023/07/12 04:30:42;;;;;;;6.30;2.70;;;;;;;30.10;55.04;99990.14;109275;1253;60063;-65
2023/07/12 04:33:09;;;;;;;3.20;2.30;;;;;;;30.44;54.79;99986.80;109225;1253;60132;-66
2023/07/12 04:35:38;;;;;;;2.90;1.60;;;;;;;31.10;51.09;99986.39;109305;1253;73921;-65
2023/07/12 04:38:06;;;;;;;2.80;1.60;;;;;;;31.46;47.77;99985.13;109246;1253;58311;-66
2023/07/12 04:40:33;;;;;;;3.20;1.70;;;;;;;31.69;45.09;99985.50;109163;1253;62511;-66
2023/07/12 04:43:01;;;;;;;2.50;1.60;;;;;;;31.82;42.87;99987.92;109243;1253;58156;-65
2023/07/12 04:45:29;;;;;;;2.70;1.90;;;;;;;31.99;42.31;99992.19;109273;1253;58742;-65
2023/07/12 04:47:56;;;;;;;3.80;1.70;;;;;;;32.24;42.16;99992.41;109216;1253;63658;-66
2023/07/12 04:50:24;;;;;;;2.50;1.70;;;;;;;32.59;40.98;99992.88;109198;1253;58558;-66
2023/07/12 04:52:52;;;;;;;2.90;1.30;;;;;;;33.02;38.84;99990.29;109262;1253;64398;-65
2023/07/12 04:55:25;;;;;;;2.40;1.70;;;;;;;33.45;36.49;99996.04;109221;1252;61011;-65
2023/07/12 04:57:54;;;;;;;2.70;1.70;;;;;;;33.66;35.43;99995.31;109169;1253;58599;-66
2023/07/12 05:00:25;;;;;;;4.30;2.00;;;;;;;33.74;35.05;99991.90;109293;1252;64951;-66
2023/07/12 05:02:53;;;;;;;2.60;2.00;;;;;;;33.61;34.36;99990.55;109287;1253;58574;-65
2023/07/12 05:05:21;;;;;;;3.60;2.00;;;;;;;33.43;35.01;99989.34;109241;1253;63931;-65
2023/07/12 05:07:49;;;;;;;2.70;1.60;;;;;;;33.34;35.36;99992.00;109189;1252;58284;-66
2023/07/12 05:10:17;;;;;;;2.70;1.60;;;;;;;33.18;35.58;99995.84;109221;1253;58217;-66
2023/07/12 05:12:44;;;;;;;2.80;1.40;;;;;;;33.01;35.96;99993.58;109225;1253;65063;-65
2023/07/12 05:15:12;;;;;;;2.40;1.40;;;;;;;33.08;36.49;99993.41;109370;1253;58187;-66
2023/07/12 05:17:40;;;;;;;2.10;1.40;;;;;;;33.42;36.21;99996.40;109275;1253;63828;-65
2023/07/12 05:20:10;;;;;;;3.50;1.50;;;;;;;33.71;35.55;99992.90;109187;1253;58608;-66
2023/07/12 05:22:38;;;;;;;1.70;1.40;;;;;;;33.93;34.45;99984.37;109098;1253;58666;-65
2023/07/12 05:25:06;;;;;;;2.30;1.30;;;;;;;34.00;33.74;99983.27;109272;1253;64990;-65
2023/07/12 05:27:34;;;;;;;2.00;1.30;;;;;;;34.02;33.60;99980.82;109182;1253;58711;-65
2023/07/12 05:30:02;;;;;;;3.20;1.60;;;;;;;34.05;33.79;99978.53;109134;1254;63912;-66
2023/07/12 05:32:30;;;;;;;1.80;1.30;;;;;;;34.23;33.14;99982.30;109258;1253;58911;-65
2023/07/12 05:34:57;;;;;;;3.70;1.40;;;;;;;34.26;32.17;99984.46;109249;1253;58279;-65
2023/07/12 05:37:25;;;;;;;2.90;1.20;;;;;;;34.17;32.18;99983.61;109241;1252;65043;-65
2023/07/12 05:39:58;;;;;;;3.50;1.20;;;;;;;34.11;32.22;99981.06;109208;1253;58622;-65
2023/07/12 05:42:25;;;;;;;1.90;1.20;;;;;;;34.08;32.49;99980.00;109247;1253;62529;-65
2023/07/12 05:44:53;;;;;;;1.90;1.30;;;;;;;33.98;31.75;99978.85;109302;1253;58649;-64
2023/07/12 05:47:21;;;;;;;2.40;1.40;;;;;;;33.66;31.55;99980.10;109221;1252;58773;-64
2023/07/12 05:49:48;;;;;;;2.70;1.20;;;;;;;33.17;32.78;99980.39;109264;1252;65038;-65
2023/07/12 05:52:16;;;;;;;2.60;1.10;;;;;;;32.72;34.03;99983.67;109289;1252;58691;-64
2023/07/12 05:54:44;;;;;;;2.20;1.30;;;;;;;32.44;33.53;99982.85;109183;1253;64349;-63
2023/07/12 05:57:11;;;;;;;2.10;1.10;;;;;;;32.20;33.80;99985.48;109238;1253;58861;-64
2023/07/12 05:59:39;;;;;;;2.70;1.20;;;;;;;32.13;34.98;99985.48;109313;1253;58235;-64
2023/07/12 06:02:09;;;;;;;2.70;1.30;;;;;;;32.27;34.96;99982.73;109222;1253;73910;-64
2023/07/12 06:04:36;;;;;;;2.50;1.20;;;;;;;32.55;34.94;99985.74;109091;1253;66235;-64
2023/07/12 06:07:04;;;;;;;2.20;1.20;;;;;;;32.99;34.56;99984.71;109195;1253;63866;-64
2023/07/12 06:09:32;;;;;;;2.90;1.30;;;;;;;33.48;33.73;99984.95;109312;1253;58842;-64
2023/07/12 06:11:59;;;;;;;4.90;1.50;;;;;;;33.88;33.94;99981.63;109088;1253;58255;-65
2023/07/12 06:14:27;;;;;;;2.40;1.30;;;;;;;34.57;33.56;99978.16;109172;1253;64963;-65
2023/07/12 06:16:54;;;;;;;1.70;1.20;;;;;;;35.41;31.88;99979.00;109142;1253;58418;-63
2023/07/12 06:19:22;;;;;;;2.60;1.50;;;;;;;36.16;30.47;99974.75;109150;1253;63838;-64
2023/07/12 06:21:50;;;;;;;2.30;1.50;;;;;;;36.59;29.74;99978.48;109103;1255;58280;-64
2023/07/12 06:24:17;;;;;;;2.80;1.40;;;;;;;37.02;29.24;99978.02;109250;1253;58718;-64
2023/07/12 06:26:45;;;;;;;2.40;1.60;;;;;;;37.31;29.26;99979.63;109053;1253;63718;-64
2023/07/12 06:29:13;;;;;;;2.30;1.70;;;;;;;37.45;28.72;99981.05;109060;1253;58751;-64
2023/07/12 06:31:43;;;;;;;4.60;2.40;;;;;;;37.52;28.50;99978.80;109237;1253;62508;-64
2023/07/12 06:34:12;;;;;;;2.60;2.10;;;;;;;37.67;28.25;99980.75;109212;1253;58689;-65
2023/07/12 06:36:39;;;;;;;3.60;1.70;;;;;;;38.01;27.58;99981.32;109248;1253;58249;-65
2023/07/12 06:39:07;;;;;;;3.30;1.70;;;;;;;38.38;26.62;99984.05;109275;1253;63727;-64
2023/07/12 06:41:35;;;;;;;2.80;2.20;;;;;;;38.51;25.44;99987.11;109141;1253;58641;-64
2023/07/12 06:44:02;;;;;;;3.60;2.00;;;;;;;38.39;24.81;99988.04;109058;1253;63845;-65
2023/07/12 06:46:30;;;;;;;3.30;2.30;;;;;;;38.09;25.13;99990.96;108984;1253;58135;-65
2023/07/12 06:48:58;;;;;;;2.70;2.00;;;;;;;37.53;25.21;99990.85;109116;1253;58915;-64
2023/07/12 06:51:25;;;;;;;2.10;1.80;;;;;;;36.87;25.58;99993.25;109269;1253;65044;-64
2023/07/12 06:53:53;;;;;;;2.50;1.80;;;;;;;36.24;26.56;99997.67;109271;1253;58223;-65
2023/07/12 06:56:20;;;;;;;2.40;1.90;;;;;;;35.50;27.77;100001.48;109019;1253;62462;-66
2023/07/12 06:58:48;;;;;;;2.50;1.50;;;;;;;34.87;28.70;100007.79;109037;1253;58676;-64
2023/07/12 07:01:16;;;;;;;2.90;1.60;;;;;;;34.51;29.58;100008.35;109122;1253;62626;-64
2023/07/12 07:03:44;;;;;;;1.90;1.40;;;;;;;34.31;29.74;100002.34;109090;1253;65108;-64
2023/07/12 07:06:11;;;;;;;3.60;1.60;;;;;;;34.00;30.34;100004.36;109080;1253;58692;-65
2023/07/12 07:08:39;;;;;;;2.30;1.50;;;;;;;33.91;31.41;100003.09;109012;1253;64350;-64
2023/07/12 07:11:07;;;;;;;2.30;1.30;;;;;;;34.06;30.88;100002.81;109094;1253;58218;-64
2023/07/12 07:13:34;;;;;;;3.40;1.70;;;;;;;34.25;30.91;100002.11;109158;1252;58229;-64
2023/07/12 07:16:03;;;;;;;2.70;1.50;;;;;;;34.54;30.20;99997.74;109272;1253;64947;-66
2023/07/12 07:18:31;;;;;;;3.60;1.30;;;;;;;34.83;29.52;99992.94;109235;1253;58346;-65
2023/07/12 07:21:03;;;;;;;3.20;1.30;;;;;;;35.18;29.03;99991.32;109305;1253;64011;-65
2023/07/12 07:23:30;;;;;;;2.10;1.30;;;;;;;35.58;28.34;99991.90;109309;1253;58210;-65
2023/07/12 07:26:08;;;;;;;2.00;1.30;;;;;;;35.95;27.97;99990.52;109253;1253;58145;-65
2023/07/12 07:28:38;;;;;;;1.70;1.40;;;;;;;36.26;27.44;99987.09;109035;1253;66009;-64
2023/07/12 07:31:07;;;;;;;2.30;1.50;;;;;;;36.37;27.41;99985.73;109074;1253;58431;-64
2023/07/12 07:33:36;;;;;;;2.70;1.60;;;;;;;36.28;27.91;99982.56;109305;1253;63868;-64
2023/07/12 07:36:05;;;;;;;1.80;1.40;;;;;;;35.97;27.65;99981.33;109300;1253;58893;-64
2023/07/12 07:38:34;;;;;;;2.30;1.50;;;;;;;35.35;27.49;99980.20;108979;1253;58287;-63
2023/07/12 07:41:09;;;;;;;3.20;1.60;;;;;;;34.51;28.57;99986.68;109000;1253;64021;-64
2023/07/12 07:43:37;;;;;;;1.90;1.30;;;;;;;33.73;30.06;99987.38;109003;1253;58320;-64
2023/07/12 07:46:04;;;;;;;2.20;1.40;;;;;;;33.30;31.21;99987.27;109010;1253;64618;-64
2023/07/12 07:48:32;;;;;;;2.10;1.50;;;;;;;33.13;31.81;99983.45;109036;1258;58667;-64
2023/07/12 07:51:00;;;;;;;2.50;1.80;;;;;;;33.05;32.16;99983.46;109262;1253;58155;-63
2023/07/12 07:53:30;;;;;;;2.40;1.30;;;;;;;32.77;32.11;99979.39;109100;1253;63788;-63
2023/07/12 07:55:58;;;;;;;3.60;1.70;;;;;;;32.44;32.46;99976.52;109096;1253;58426;-65
2023/07/12 07:58:25;;;;;;;2.10;1.60;;;;;;;32.27;33.44;99981.80;109243;1253;63817;-63
2023/07/12 08:00:53;;;;;;;3.50;1.60;;;;;;;32.22;33.97;99981.41;109288;1253;58767;-64
2023/07/12 08:03:21;;;;;;;2.10;1.70;;;;;;;32.18;33.72;99981.83;109254;1253;60276;-63
2023/07/12 08:05:48;;;;;;;2.00;1.60;;;;;;;32.06;34.15;99978.73;109303;1253;73907;-65
2023/07/12 08:08:16;;;;;;;2.30;1.50;;;;;;;32.00;33.45;99978.20;109271;1253;65660;-64
2023/07/12 08:10:44;;;;;;;2.50;1.70;;;;;;;31.80;33.65;99982.73;109282;1253;64241;-64
2023/07/12 08:13:12;;;;;;;2.60;1.50;;;;;;;31.53;33.76;99985.33;109295;1253;58592;-64
2023/07/12 08:15:41;;;;;;;2.60;1.80;;;;;;;31.18;34.99;99989.56;109316;1252;58187;-63
2023/07/12 08:18:10;;;;;;;3.80;1.80;;;;;;;30.77;39.34;99994.20;109206;1253;74149;-66
2023/07/12 08:20:42;;;;;;;2.90;1.70;;;;;;;30.37;47.95;99994.20;109263;1253;67380;-63
2023/07/12 08:23:09;;;;;;;;;;;;;;;29.76;53.39;100004.15;109308;1253;72149;-64
2023/07/12 08:25:37;;;;;;;3.20;1.90;;;;;;;28.96;59.24;100003.81;109284;1253;60185;-63
2023/07/12 08:28:04;;;;;;;9.00;2.70;;;;;;;28.22;62.94;100001.41;109268;1253;58720;-65
2023/07/12 08:30:32;;;;;;;3.80;1.90;;;;;;;27.73;70.27;100000.11;109287;1253;73908;-63
2023/07/12 08:33:00;;;;;;;2.50;1.70;;;;;;;27.43;72.48;99998.44;109310;1253;65661;-63
2023/07/12 08:35:27;;;;;;;3.70;1.70;;;;;;;27.30;73.55;99989.19;109242;1253;72760;-62
2023/07/12 08:37:58;;;;;;;2.50;1.80;;;;;;;27.30;70.41;99989.81;109214;1253;60112;-64
2023/07/12 08:40:26;;;;;;;2.80;1.60;;;;;;;27.28;71.69;99990.55;109237;1253;58858;-64
2023/07/12 08:42:53;;;;;;;5.00;2.20;;;;;;;27.39;70.42;99984.61;109097;1253;72040;-63
2023/07/12 08:45:22;;;;;;;2.40;1.50;;;;;;;27.53;73.29;99981.53;109277;1252;66151;-64
2023/07/12 08:47:51;;;;;;;3.10;1.90;;;;;;;27.79;72.31;99977.07;109283;1253;72663;-63
2023/07/12 08:50:19;;;;;;;2.30;1.80;;;;;;;28.04;68.94;99972.67;109232;1253;58892;-64
2023/07/12 08:52:47;;;;;;;3.00;1.90;;;;;;;28.31;65.78;99972.50;109300;1253;58841;-63
2023/07/12 08:55:18;;;;;;;2.80;2.00;;;;;;;28.56;57.56;99966.83;109110;1253;71971;-63
2023/07/12 08:57:54;;;;;;;2.00;1.50;;;;;;;28.79;58.35;99962.11;109310;1253;67205;-63
2023/07/12 09:00:23;;;;;;;2.30;1.60;;;;;;;29.14;57.32;99962.58;109251;1253;71449;-64
2023/07/12 09:02:50;;;;;;;1.80;1.40;;;;;;;29.45;49.12;99959.28;109322;1254;59742;-63
2023/07/12 09:05:21;;;;;;;2.10;1.30;;;;;;;29.81;45.69;99959.71;109331;1253;58788;-63
2023/07/12 09:07:48;;;;;;;2.20;1.30;;;;;;;30.35;43.40;99948.48;109293;1253;72751;-64
2023/07/12 09:10:33;;;;;;;2.30;1.60;;;;;;;30.82;39.86;99951.12;109178;1254;66904;-65
2023/07/12 09:13:01;;;;;;;1.70;1.40;;;;;;;31.31;38.88;99948.71;109250;1253;71765;-63
2023/07/12 09:15:52;;;;;;;2.10;1.60;;;;;;;31.59;37.10;99942.33;109237;1253;59288;-63
2023/07/12 09:18:30;;;;;;;;;;;;;;;31.52;35.44;99944.23;109251;1253;59766;-62
2023/07/12 09:20:59;;;;;;;2.40;1.70;;;;;;;31.25;36.52;99949.41;109269;1253;73905;-63
2023/07/12 09:23:37;;;;;;;2.40;1.50;;;;;;;31.27;38.19;99940.52;109288;1253;65672;-65
2023/07/12 09:26:20;;;;;;;2.60;1.60;;;;;;;31.65;36.62;99934.79;108976;1253;72736;-65
2023/07/12 09:28:49;;;;;;;2.70;1.90;;;;;;;32.17;36.39;99940.94;109199;1253;60983;-64
2023/07/12 09:31:21;;;;;;;1.90;1.60;;;;;;;32.59;35.18;99940.20;109027;1253;58093;-65
2023/07/12 09:34:00;;;;;;;2.10;1.50;;;;;;;32.93;34.48;99940.09;109171;1253;64959;-65
2023/07/12 09:36:28;;;;;;;3.50;1.70;;;;;;;33.16;33.58;99939.78;109112;1252;67087;-65
2023/07/12 09:39:03;;;;;;;3.40;1.60;;;;;;;33.10;33.40;99940.07;109252;1253;64021;-64
2023/07/12 09:41:30;;;;;;;2.50;1.50;;;;;;;32.93;33.51;99939.78;109197;1254;58507;-63
2023/07/12 09:43:59;;;;;;;2.40;1.60;;;;;;;32.66;33.81;99941.11;109180;1253;58669;-65
2023/07/12 09:46:39;;;;;;;1.80;1.30;;;;;;;32.26;35.01;99937.68;109216;1253;72618;-63
2023/07/12 09:49:22;;;;;;;2.70;1.90;;;;;;;31.88;35.32;99940.05;109097;1253;58948;-62
2023/07/12 09:51:57;;;;;;;2.90;1.80;;;;;;;31.42;35.72;99939.44;109046;1253;72719;-64
2023/07/12 09:54:43;;;;;;;2.60;1.70;;;;;;;30.92;36.67;99940.71;108979;1253;60165;-64
2023/07/12 09:57:52;;;;;;;2.20;1.80;;;;;;;30.30;37.81;99937.90;109096;1253;60077;-63
2023/07/12 10:00:29;;;;;;;2.20;1.60;;;;;;;29.78;41.17;99935.80;109157;1252;73949;-63
2023/07/12 10:03:19;;;;;;;3.60;1.60;;;;;;;29.81;43.29;99930.41;109231;1253;65641;-62
2023/07/12 10:05:52;;;;;;;2.50;1.70;;;;;;;30.29;43.57;99922.73;109180;1253;71451;-63
2023/07/12 10:08:20;;;;;;;2.20;1.70;;;;;;;30.81;41.29;99922.47;109165;1254;60134;-63
2023/07/12 10:10:51;;;;;;;2.50;1.60;;;;;;;31.25;38.41;99918.80;109314;1253;58814;-63
2023/07/12 10:13:33;;;;;;;;;;;;;;;31.64;36.48;99917.02;109190;1256;73956;-64
2023/07/12 10:16:02;;;;;;;2.30;1.80;;;;;;;31.96;34.75;99914.05;109243;1258;67439;-62
2023/07/12 10:18:32;;;;;;;3.50;1.60;;;;;;;32.28;35.97;99912.42;109088;1253;72712;-62
2023/07/12 10:21:00;;;;;;;2.20;1.40;;;;;;;32.74;34.01;99913.05;109133;1253;60148;-63
2023/07/12 10:23:29;;;;;;;1.90;1.40;;;;;;;33.13;32.41;99912.84;109012;1253;58631;-61
2023/07/12 10:25:59;;;;;;;2.00;1.50;;;;;;;33.39;31.60;99909.55;109131;1253;64910;-62
2023/07/12 10:28:52;;;;;;;3.70;1.70;;;;;;;33.56;31.71;99906.62;109229;1253;66971;-62
2023/07/12 10:31:42;;;;;;;2.40;1.60;;;;;;;33.61;30.94;99907.84;109291;1253;63767;-63
2023/07/12 10:34:27;;;;;;;2.10;1.60;;;;;;;33.49;31.35;99906.41;109005;1253;58770;-64
2023/07/12 10:37:05;;;;;;;2.50;1.30;;;;;;;33.42;31.67;99904.67;109160;1253;58359;-62
2023/07/12 10:39:33;;;;;;;3.00;1.70;;;;;;;33.44;32.25;99907.98;109078;1255;65052;-62
2023/07/12 10:42:06;;;;;;;2.10;1.30;;;;;;;33.57;31.79;99908.19;109010;1254;58772;-62
2023/07/12 10:44:42;;;;;;;2.80;1.40;;;;;;;33.73;30.90;99907.28;109220;1253;64386;-63
2023/07/12 10:47:15;;;;;;;2.90;1.30;;;;;;;33.99;30.36;99909.76;108990;1253;58798;-63
2023/07/12 10:49:45;;;;;;;1.90;1.20;;;;;;;34.23;29.57;99902.82;109247;1253;58830;-64
2023/07/12 10:52:15;;;;;;;2.00;1.50;;;;;;;34.33;29.50;99908.70;109250;1254;64299;-64
2023/07/12 10:55:08;;;;;;;3.00;1.40;;;;;;;34.24;29.04;99905.48;109279;1253;58637;-63
2023/07/12 10:57:44;;;;;;;3.20;1.80;;;;;;;33.34;29.83;99912.89;108936;1257;74460;-64
2023/07/12 11:00:23;;;;;;;2.60;1.60;;;;;;;32.45;31.85;99917.49;109074;1253;60307;-63
2023/07/12 11:03:00;;;;;;;1.60;1.30;;;;;;;32.21;33.52;99917.73;109177;1257;58681;-63
2023/07/12 11:06:07;;;;;;;3.40;2.00;;;;;;;32.32;35.66;99921.08;109214;1253;72626;-64
2023/07/12 11:08:36;;;;;;;3.00;1.70;;;;;;;32.48;35.83;99913.58;108838;1253;58661;-63
2023/07/12 11:11:09;;;;;;;2.80;1.70;;;;;;;32.48;35.44;99911.29;109028;1255;62506;-64
2023/07/12 11:13:42;;;;;;;3.10;1.80;;;;;;;32.39;34.80;99908.14;109201;1254;58851;-63
2023/07/12 11:16:17;;;;;;;2.70;1.80;;;;;;;32.17;35.52;99903.35;109279;1254;60021;-64
2023/07/12 11:18:50;;;;;;;3.40;2.10;;;;;;;32.17;34.99;99898.65;109246;1253;65010;-65
2023/07/12 11:21:28;;;;;;;2.00;1.50;;;;;;;32.16;34.75;99899.01;109257;1252;65653;-64
2023/07/12 11:23:56;;;;;;;2.00;1.60;;;;;;;32.11;34.31;99894.38;109156;1254;71865;-64
2023/07/12 11:26:28;;;;;;;2.50;1.80;;;;;;;32.19;33.60;99893.48;109208;1253;58731;-65
2023/07/12 11:29:29;;;;;;;2.40;1.60;;;;;;;32.30;33.37;99891.90;109306;1252;58245;-64
2023/07/12 11:32:30;;;;;;;2.60;1.70;;;;;;;32.30;33.87;99895.20;109096;1252;63732;-65
2023/07/12 11:35:30;;;;;;;2.50;1.60;;;;;;;32.09;33.96;99889.30;109269;1254;66559;-64